sensor_id;sensor_type;location;lat;lon;timestamp;pressure;altitude;pressure_sealevel;temperature;humidity
19594;BME280;9944;48.240;16.478;2023-05-14T00:03:20;100131.66;;;11.64;79.07
19594;BME280;9944;48.240;16.478;2023-05-14T00:07:23;100136.94;;;11.64;79.06
19594;BME280;9944;48.240;16.478;2023-05-14T00:11:31;100129.91;;;11.63;79.27
19594;BME280;9944;48.240;16.478;2023-05-14T00:15:36;100129.91;;;11.63;79.31
19594;BME280;9944;48.240;16.478;2023-05-14T00:19:39;100125.50;;;11.63;79.12
19594;BME280;9944;48.240;16.478;2023-05-14T00:23:43;100120.22;;;11.63;79.24
19594;BME280;9944;48.240;16.478;2023-05-14T00:27:46;100108.75;;;11.63;79.43
19594;BME280;9944;48.240;16.478;2023-05-14T00:31:50;100114.06;;;11.61;79.34
19594;BME280;9944;48.240;16.478;2023-05-14T00:35:54;100114.06;;;11.60;79.33
19594;BME280;9944;48.240;16.478;2023-05-14T00:39:57;100095.53;;;11.58;78.96
19594;BME280;9944;48.240;16.478;2023-05-14T00:44:00;100092.91;;;11.56;78.90
19594;BME280;9944;48.240;16.478;2023-05-14T00:48:14;100095.53;;;11.50;78.62
19594;BME280;9944;48.240;16.478;2023-05-14T00:52:17;100088.53;;;11.46;78.61
19594;BME280;9944;48.240;16.478;2023-05-14T00:56:21;100094.69;;;11.45;78.71
19594;BME280;9944;48.240;16.478;2023-05-14T01:00:25;100086.78;;;11.44;78.35
19594;BME280;9944;48.240;16.478;2023-05-14T01:04:29;100085.88;;;11.43;78.90
19594;BME280;9944;48.240;16.478;2023-05-14T01:08:41;100080.59;;;11.42;79.11
19594;BME280;9944;48.240;16.478;2023-05-14T01:12:49;100077.94;;;11.42;79.05
19594;BME280;9944;48.240;16.478;2023-05-14T01:16:57;100066.50;;;11.38;78.68
19594;BME280;9944;48.240;16.478;2023-05-14T01:21:02;100066.53;;;11.35;78.52
19594;BME280;9944;48.240;16.478;2023-05-14T01:25:08;100064.75;;;11.34;78.60
19594;BME280;9944;48.240;16.478;2023-05-14T01:29:15;100064.75;;;11.32;78.75
19594;BME280;9944;48.240;16.478;2023-05-14T01:33:25;100063.88;;;11.30;78.77
19594;BME280;9944;48.240;16.478;2023-05-14T01:37:30;100070.03;;;11.28;78.76
19594;BME280;9944;48.240;16.478;2023-05-14T01:41:36;100061.22;;;11.29;78.61
19594;BME280;9944;48.240;16.478;2023-05-14T01:45:40;100070.03;;;11.28;78.83
19594;BME280;9944;48.240;16.478;2023-05-14T01:49:44;100063.00;;;11.24;78.50
19594;BME280;9944;48.240;16.478;2023-05-14T01:53:47;100068.28;;;11.21;78.44
19594;BME280;9944;48.240;16.478;2023-05-14T01:57:52;100065.63;;;11.17;78.50
19594;BME280;9944;48.240;16.478;2023-05-14T02:01:56;100066.53;;;11.16;78.34
19594;BME280;9944;48.240;16.478;2023-05-14T02:05:59;100059.47;;;11.15;78.61
19594;BME280;9944;48.240;16.478;2023-05-14T02:10:02;100047.16;;;11.11;78.52
19594;BME280;9944;48.240;16.478;2023-05-14T02:14:07;100050.72;;;11.07;78.11
19594;BME280;9944;48.240;16.478;2023-05-14T02:18:10;100047.16;;;11.05;78.19
19594;BME280;9944;48.240;16.478;2023-05-14T02:22:13;100038.38;;;11.00;78.37
19594;BME280;9944;48.240;16.478;2023-05-14T02:26:16;100033.97;;;10.99;78.33
19594;BME280;9944;48.240;16.478;2023-05-14T02:30:21;100031.34;;;10.97;78.64
19594;BME280;9944;48.240;16.478;2023-05-14T02:34:25;100030.47;;;10.95;78.65
19594;BME280;9944;48.240;16.478;2023-05-14T02:38:29;100029.59;;;10.92;78.53
19594;BME280;9944;48.240;16.478;2023-05-14T02:42:32;100025.19;;;10.89;78.60
19594;BME280;9944;48.240;16.478;2023-05-14T02:46:36;100026.94;;;10.87;78.71
19594;BME280;9944;48.240;16.478;2023-05-14T02:50:39;100019.03;;;10.89;78.45
19594;BME280;9944;48.240;16.478;2023-05-14T02:54:42;100026.09;;;10.87;78.62
19594;BME280;9944;48.240;16.478;2023-05-14T02:58:46;100034.88;;;10.89;78.48
19594;BME280;9944;48.240;16.478;2023-05-14T03:02:50;100032.22;;;10.89;78.50
19594;BME280;9944;48.240;16.478;2023-05-14T03:06:54;100021.66;;;10.86;78.23
19594;BME280;9944;48.240;16.478;2023-05-14T03:10:57;100021.66;;;10.82;78.42
19594;BME280;9944;48.240;16.478;2023-05-14T03:15:00;100030.47;;;10.80;78.56
19594;BME280;9944;48.240;16.478;2023-05-14T03:19:05;100024.34;;;10.78;78.73
19594;BME280;9944;48.240;16.478;2023-05-14T03:23:09;100024.31;;;10.76;78.71
19594;BME280;9944;48.240;16.478;2023-05-14T03:27:12;100020.78;;;10.77;78.36
19594;BME280;9944;48.240;16.478;2023-05-14T03:31:15;100013.78;;;10.79;78.42
19594;BME280;9944;48.240;16.478;2023-05-14T03:35:19;100008.47;;;10.82;78.13
19594;BME280;9944;48.240;16.478;2023-05-14T03:39:22;100016.38;;;10.84;78.17
19594;BME280;9944;48.240;16.478;2023-05-14T03:43:26;100006.72;;;10.85;78.20
19594;BME280;9944;48.240;16.478;2023-05-14T03:47:29;100005.81;;;10.84;77.97
19594;BME280;9944;48.240;16.478;2023-05-14T03:51:36;99997.03;;;10.84;77.74
19594;BME280;9944;48.240;16.478;2023-05-14T03:55:39;100008.47;;;10.82;77.33
19594;BME280;9944;48.240;16.478;2023-05-14T03:59:45;100005.81;;;10.81;77.44
19594;BME280;9944;48.240;16.478;2023-05-14T04:03:48;100005.81;;;10.82;77.51
19594;BME280;9944;48.240;16.478;2023-05-14T04:07:53;99992.63;;;10.82;77.19
19594;BME280;9944;48.240;16.478;2023-05-14T04:11:56;99999.66;;;10.80;76.81
19594;BME280;9944;48.240;16.478;2023-05-14T04:15:59;99999.66;;;10.77;76.81
19594;BME280;9944;48.240;16.478;2023-05-14T04:20:04;100001.44;;;10.78;77.15
19594;BME280;9944;48.240;16.478;2023-05-14T04:24:09;100004.06;;;10.81;77.32
19594;BME280;9944;48.240;16.478;2023-05-14T04:28:12;100004.94;;;10.84;77.28
19594;BME280;9944;48.240;16.478;2023-05-14T04:32:15;100003.19;;;10.86;77.24
19594;BME280;9944;48.240;16.478;2023-05-14T04:36:19;99996.13;;;10.88;77.25
19594;BME280;9944;48.240;16.478;2023-05-14T04:40:23;99995.25;;;10.89;77.24
19594;BME280;9944;48.240;16.478;2023-05-14T04:44:27;99994.34;;;10.93;77.77
19594;BME280;9944;48.240;16.478;2023-05-14T04:48:30;99988.22;;;10.95;77.38
19594;BME280;9944;48.240;16.478;2023-05-14T04:52:33;99990.84;;;10.95;77.36
19594;BME280;9944;48.240;16.478;2023-05-14T04:56:37;100001.41;;;10.97;77.39
19594;BME280;9944;48.240;16.478;2023-05-14T05:00:41;99991.72;;;10.96;77.30
19594;BME280;9944;48.240;16.478;2023-05-14T05:04:44;100000.50;;;10.96;77.36
19594;BME280;9944;48.240;16.478;2023-05-14T05:08:47;99995.22;;;10.95;77.31
19594;BME280;9944;48.240;16.478;2023-05-14T05:12:52;100001.41;;;10.94;77.41
19594;BME280;9944;48.240;16.478;2023-05-14T05:16:55;100010.22;;;10.94;77.16
19594;BME280;9944;48.240;16.478;2023-05-14T05:20:58;99997.88;;;10.96;77.36
19594;BME280;9944;48.240;16.478;2023-05-14T05:25:01;100005.78;;;11.01;77.82
19594;BME280;9944;48.240;16.478;2023-05-14T05:29:08;100003.16;;;11.01;77.63
19594;BME280;9944;48.240;16.478;2023-05-14T05:33:11;100002.28;;;11.00;77.98
19594;BME280;9944;48.240;16.478;2023-05-14T05:37:14;100001.38;;;11.03;77.97
19594;BME280;9944;48.240;16.478;2023-05-14T05:41:17;99989.06;;;11.02;77.96
19594;BME280;9944;48.240;16.478;2023-05-14T05:45:22;99987.31;;;11.01;78.08
19594;BME280;9944;48.240;16.478;2023-05-14T05:49:25;99982.94;;;10.97;78.49
19594;BME280;9944;48.240;16.478;2023-05-14T05:53:28;99980.28;;;10.94;78.94
19594;BME280;9944;48.240;16.478;2023-05-14T05:57:31;99982.06;;;10.89;78.86
19594;BME280;9944;48.240;16.478;2023-05-14T06:01:36;99981.19;;;10.88;79.26
19594;BME280;9944;48.240;16.478;2023-05-14T06:05:39;99990.84;;;10.88;79.09
19594;BME280;9944;48.240;16.478;2023-05-14T06:09:42;99989.06;;;10.93;79.39
19594;BME280;9944;48.240;16.478;2023-05-14T06:13:45;99987.31;;;10.98;79.64
19594;BME280;9944;48.240;16.478;2023-05-14T06:17:50;99989.06;;;11.02;79.62
19594;BME280;9944;48.240;16.478;2023-05-14T06:21:53;99988.19;;;11.03;79.25
19594;BME280;9944;48.240;16.478;2023-05-14T06:25:56;99989.06;;;10.99;79.14
19594;BME280;9944;48.240;16.478;2023-05-14T06:29:59;99978.50;;;10.99;78.99
19594;BME280;9944;48.240;16.478;2023-05-14T06:34:03;99988.22;;;10.97;79.02
19594;BME280;9944;48.240;16.478;2023-05-14T06:38:07;99986.44;;;10.97;79.21
19594;BME280;9944;48.240;16.478;2023-05-14T06:42:10;99988.19;;;11.00;79.41
19594;BME280;9944;48.240;16.478;2023-05-14T06:46:13;99989.06;;;10.96;79.16
19594;BME280;9944;48.240;16.478;2023-05-14T06:50:17;99980.28;;;10.89;79.36
19594;BME280;9944;48.240;16.478;2023-05-14T06:54:20;99992.63;;;10.82;79.43
19594;BME280;9944;48.240;16.478;2023-05-14T06:58:23;99988.22;;;10.77;79.52
19594;BME280;9944;48.240;16.478;2023-05-14T07:02:26;99994.41;;;10.68;79.95
19594;BME280;9944;48.240;16.478;2023-05-14T07:06:31;99984.72;;;10.67;80.19
19594;BME280;9944;48.240;16.478;2023-05-14T07:10:34;99986.47;;;10.70;80.40
19594;BME280;9944;48.240;16.478;2023-05-14T07:14:37;99985.63;;;10.69;80.54
19594;BME280;9944;48.240;16.478;2023-05-14T07:18:40;99984.72;;;10.70;80.81
19594;BME280;9944;48.240;16.478;2023-05-14T07:22:45;99975.94;;;10.71;81.02
19594;BME280;9944;48.240;16.478;2023-05-14T07:26:48;99974.16;;;10.69;80.72
19594;BME280;9944;48.240;16.478;2023-05-14T07:30:51;99972.41;;;10.68;80.94
19594;BME280;9944;48.240;16.478;2023-05-14T07:34:55;99969.78;;;10.71;81.28
19594;BME280;9944;48.240;16.478;2023-05-14T07:38:59;99968.00;;;10.68;81.14
19594;BME280;9944;48.240;16.478;2023-05-14T07:43:02;99969.75;;;10.63;81.29
19594;BME280;9944;48.240;16.478;2023-05-14T07:47:05;99960.97;;;10.61;81.70
19594;BME280;9944;48.240;16.478;2023-05-14T07:51:09;99960.97;;;10.58;81.54
19594;BME280;9944;48.240;16.478;2023-05-14T07:55:13;99951.28;;;10.60;82.12
19594;BME280;9944;48.240;16.478;2023-05-14T07:59:17;99949.53;;;10.60;81.89
19594;BME280;9944;48.240;16.478;2023-05-14T08:03:21;99941.63;;;10.62;82.08
19594;BME280;9944;48.240;16.478;2023-05-14T08:07:24;99941.59;;;10.68;82.91
19594;BME280;9944;48.240;16.478;2023-05-14T08:11:30;99932.81;;;10.69;82.57
19594;BME280;9944;48.240;16.478;2023-05-14T08:15:33;99922.22;;;10.72;82.74
19594;BME280;9944;48.240;16.478;2023-05-14T08:19:36;99916.06;;;10.69;82.36
19594;BME280;9944;48.240;16.478;2023-05-14T08:23:40;99913.44;;;10.67;82.54
19594;BME280;9944;48.240;16.478;2023-05-14T08:27:44;99909.91;;;10.65;82.13
19594;BME280;9944;48.240;16.478;2023-05-14T08:31:48;99914.31;;;10.63;82.61
19594;BME280;9944;48.240;16.478;2023-05-14T08:35:52;99913.47;;;10.64;82.77
19594;BME280;9944;48.240;16.478;2023-05-14T08:39:55;99909.03;;;10.63;82.41
19594;BME280;9944;48.240;16.478;2023-05-14T08:44:05;99909.03;;;10.63;82.62
19594;BME280;9944;48.240;16.478;2023-05-14T08:48:11;99914.31;;;10.63;82.94
19594;BME280;9944;48.240;16.478;2023-05-14T08:52:19;99916.97;;;10.65;82.93
19594;BME280;9944;48.240;16.478;2023-05-14T08:56:24;99908.16;;;10.67;83.17
19594;BME280;9944;48.240;16.478;2023-05-14T09:00:30;99907.28;;;10.70;83.44
19594;BME280;9944;48.240;16.478;2023-05-14T09:04:35;99906.38;;;10.72;83.80
19594;BME280;9944;48.240;16.478;2023-05-14T09:08:38;99898.44;;;10.72;83.61
19594;BME280;9944;48.240;16.478;2023-05-14T09:12:41;99899.34;;;10.74;83.63
19594;BME280;9944;48.240;16.478;2023-05-14T09:16:48;99899.34;;;10.71;83.91
19594;BME280;9944;48.240;16.478;2023-05-14T09:20:51;99889.66;;;10.69;83.59
19594;BME280;9944;48.240;16.478;2023-05-14T09:25:01;99891.44;;;10.67;83.78
19594;BME280;9944;48.240;16.478;2023-05-14T09:29:05;99892.31;;;10.67;84.11
19594;BME280;9944;48.240;16.478;2023-05-14T09:33:09;99887.03;;;10.67;84.07
19594;BME280;9944;48.240;16.478;2023-05-14T09:37:12;99883.50;;;10.68;84.09
19594;BME280;9944;48.240;16.478;2023-05-14T09:41:15;99872.94;;;10.71;84.59
19594;BME280;9944;48.240;16.478;2023-05-14T09:45:18;99876.47;;;10.73;84.28
19594;BME280;9944;48.240;16.478;2023-05-14T09:49:23;99861.53;;;10.71;84.43
19594;BME280;9944;48.240;16.478;2023-05-14T09:53:27;99861.53;;;10.68;84.38
19594;BME280;9944;48.240;16.478;2023-05-14T09:57:31;99864.16;;;10.66;84.63
19594;BME280;9944;48.240;16.478;2023-05-14T10:01:36;99870.31;;;10.71;84.51
19594;BME280;9944;48.240;16.478;2023-05-14T10:05:41;99862.38;;;10.71;84.71
19594;BME280;9944;48.240;16.478;2023-05-14T10:09:45;99842.13;;;10.73;84.66
19594;BME280;9944;48.240;16.478;2023-05-14T10:13:59;99850.94;;;10.74;84.73
19594;BME280;9944;48.240;16.478;2023-05-14T10:18:09;99848.28;;;10.75;84.79
19594;BME280;9944;48.240;16.478;2023-05-14T10:22:15;99837.72;;;10.78;85.35
19594;BME280;9944;48.240;16.478;2023-05-14T10:26:22;99828.03;;;10.80;85.11
19594;BME280;9944;48.240;16.478;2023-05-14T10:30:26;99831.53;;;10.81;85.34
19594;BME280;9944;48.240;16.478;2023-05-14T10:34:34;99822.72;;;10.82;85.41
19594;BME280;9944;48.240;16.478;2023-05-14T10:38:40;99809.53;;;10.84;85.41
19594;BME280;9944;48.240;16.478;2023-05-14T10:42:45;99806.88;;;10.82;85.72
19594;BME280;9944;48.240;16.478;2023-05-14T10:46:48;99800.72;;;10.85;85.75
19594;BME280;9944;48.240;16.478;2023-05-14T10:50:52;99798.97;;;10.85;85.57
19594;BME280;9944;48.240;16.478;2023-05-14T10:54:58;99806.88;;;10.87;86.23
19594;BME280;9944;48.240;16.478;2023-05-14T10:59:05;99804.22;;;10.90;85.97
19594;BME280;9944;48.240;16.478;2023-05-14T11:03:08;99798.91;;;10.93;86.07
19594;BME280;9944;48.240;16.478;2023-05-14T11:07:14;99791.84;;;11.01;85.99
19594;BME280;9944;48.240;16.478;2023-05-14T11:11:18;99782.13;;;11.03;86.21
19594;BME280;9944;48.240;16.478;2023-05-14T11:15:23;99779.47;;;11.11;86.14
19594;BME280;9944;48.240;16.478;2023-05-14T11:19:26;99785.59;;;11.16;86.19
19594;BME280;9944;48.240;16.478;2023-05-14T11:23:29;99777.63;;;11.21;86.52
19594;BME280;9944;48.240;16.478;2023-05-14T11:27:36;99770.53;;;11.26;86.37
19594;BME280;9944;48.240;16.478;2023-05-14T11:31:39;99772.28;;;11.30;86.71
19594;BME280;9944;48.240;16.478;2023-05-14T11:35:42;99773.16;;;11.35;86.87
19594;BME280;9944;48.240;16.478;2023-05-14T11:39:48;99757.25;;;11.40;86.99
19594;BME280;9944;48.240;16.478;2023-05-14T11:43:53;99748.47;;;11.37;86.58
19594;BME280;9944;48.240;16.478;2023-05-14T11:47:56;99737.00;;;11.39;86.66
19594;BME280;9944;48.240;16.478;2023-05-14T11:52:00;99733.47;;;11.40;86.25
19594;BME280;9944;48.240;16.478;2023-05-14T11:56:03;99730.81;;;11.38;86.44
19594;BME280;9944;48.240;16.478;2023-05-14T12:00:12;99721.09;;;11.43;86.00
19594;BME280;9944;48.240;16.478;2023-05-14T12:04:22;99715.88;;;11.39;85.94
19594;BME280;9944;48.240;16.478;2023-05-14T12:08:27;99717.59;;;11.41;86.30
19594;BME280;9944;48.240;16.478;2023-05-14T12:12:35;99714.03;;;11.45;86.54
19594;BME280;9944;48.240;16.478;2023-05-14T12:16:40;99699.91;;;11.49;86.58
19594;BME280;9944;48.240;16.478;2023-05-14T12:20:46;99679.63;;;11.48;86.13
19594;BME280;9944;48.240;16.478;2023-05-14T12:24:53;99681.34;;;11.54;86.79
19594;BME280;9944;48.240;16.478;2023-05-14T12:28:58;99687.50;;;11.58;87.37
19594;BME280;9944;48.240;16.478;2023-05-14T12:33:03;99679.53;;;11.59;86.98
19594;BME280;9944;48.240;16.478;2023-05-14T12:37:06;99665.41;;;11.63;86.83
19594;BME280;9944;48.240;16.478;2023-05-14T12:41:09;99661.00;;;11.61;86.62
19594;BME280;9944;48.240;16.478;2023-05-14T12:45:13;99666.31;;;11.59;86.43
19594;BME280;9944;48.240;16.478;2023-05-14T12:49:17;99665.44;;;11.60;86.97
19594;BME280;9944;48.240;16.478;2023-05-14T12:53:20;99669.81;;;11.63;86.94
19594;BME280;9944;48.240;16.478;2023-05-14T12:57:23;99662.75;;;11.65;87.06
19594;BME280;9944;48.240;16.478;2023-05-14T13:01:27;99664.47;;;11.66;87.13
19594;BME280;9944;48.240;16.478;2023-05-14T13:05:32;99670.66;;;11.66;86.90
19594;BME280;9944;48.240;16.478;2023-05-14T13:09:35;99675.91;;;11.68;86.53
19594;BME280;9944;48.240;16.478;2023-05-14T13:13:38;99673.31;;;11.65;86.48
19594;BME280;9944;48.240;16.478;2023-05-14T13:17:41;99671.59;;;11.61;86.63
19594;BME280;9944;48.240;16.478;2023-05-14T13:21:46;99652.22;;;11.59;86.68
19594;BME280;9944;48.240;16.478;2023-05-14T13:25:49;99661.00;;;11.61;86.78
19594;BME280;9944;48.240;16.478;2023-05-14T13:29:52;99655.78;;;11.58;86.36
19594;BME280;9944;48.240;16.478;2023-05-14T13:33:55;99640.75;;;11.61;86.75
19594;BME280;9944;48.240;16.478;2023-05-14T13:38:00;99639.84;;;11.61;86.72
19594;BME280;9944;48.240;16.478;2023-05-14T13:42:03;99625.75;;;11.62;87.23
19594;BME280;9944;48.240;16.478;2023-05-14T13:46:06;99633.66;;;11.65;87.43
19594;BME280;9944;48.240;16.478;2023-05-14T13:50:09;99626.56;;;11.70;87.33
19594;BME280;9944;48.240;16.478;2023-05-14T13:54:14;99633.56;;;11.71;87.54
19594;BME280;9944;48.240;16.478;2023-05-14T13:58:17;99629.19;;;11.70;87.42
19594;BME280;9944;48.240;16.478;2023-05-14T14:02:20;99626.47;;;11.78;87.65
19594;BME280;9944;48.240;16.478;2023-05-14T14:06:24;99623.00;;;11.72;87.33
19594;BME280;9944;48.240;16.478;2023-05-14T14:10:29;99623.84;;;11.73;87.44
19594;BME280;9944;48.240;16.478;2023-05-14T14:14:32;99602.78;;;11.67;86.84
19594;BME280;9944;48.240;16.478;2023-05-14T14:18:35;99608.09;;;11.65;87.08
19594;BME280;9944;48.240;16.478;2023-05-14T14:22:39;99608.09;;;11.64;87.32
19594;BME280;9944;48.240;16.478;2023-05-14T14:26:43;99601.97;;;11.60;87.38
19594;BME280;9944;48.240;16.478;2023-05-14T14:30:49;99594.94;;;11.59;87.56
19594;BME280;9944;48.240;16.478;2023-05-14T14:34:52;99584.34;;;11.59;87.45
19594;BME280;9944;48.240;16.478;2023-05-14T14:38:55;99589.69;;;11.58;87.93
19594;BME280;9944;48.240;16.478;2023-05-14T14:43:00;99584.41;;;11.58;87.79
19594;BME280;9944;48.240;16.478;2023-05-14T14:47:04;99582.66;;;11.55;87.78
19594;BME280;9944;48.240;16.478;2023-05-14T14:51:07;99579.97;;;11.60;88.09
19594;BME280;9944;48.240;16.478;2023-05-14T14:55:10;99570.25;;;11.60;87.81
19594;BME280;9944;48.240;16.478;2023-05-14T14:59:15;99561.47;;;11.56;87.63
19594;BME280;9944;48.240;16.478;2023-05-14T15:03:18;99547.41;;;11.56;87.95
19594;BME280;9944;48.240;16.478;2023-05-14T15:07:22;99540.31;;;11.58;88.18
19594;BME280;9944;48.240;16.478;2023-05-14T15:11:26;99542.94;;;11.60;88.36
19594;BME280;9944;48.240;16.478;2023-05-14T15:15:31;99542.03;;;11.61;87.89
19594;BME280;9944;48.240;16.478;2023-05-14T15:19:34;99546.44;;;11.62;88.05
19594;BME280;9944;48.240;16.478;2023-05-14T15:23:37;99530.56;;;11.62;87.96
19594;BME280;9944;48.240;16.478;2023-05-14T15:27:40;99530.59;;;11.60;88.00
19594;BME280;9944;48.240;16.478;2023-05-14T15:31:45;99537.66;;;11.60;88.26
19594;BME280;9944;48.240;16.478;2023-05-14T15:35:48;99527.06;;;11.61;88.16
19594;BME280;9944;48.240;16.478;2023-05-14T15:39:51;99518.25;;;11.61;88.33
19594;BME280;9944;48.240;16.478;2023-05-14T15:43:54;99514.72;;;11.62;88.42
19594;BME280;9944;48.240;16.478;2023-05-14T15:48:00;99500.66;;;11.60;88.57
19594;BME280;9944;48.240;16.478;2023-05-14T15:52:04;99498.84;;;11.62;88.47
19594;BME280;9944;48.240;16.478;2023-05-14T15:56:07;99479.53;;;11.56;88.62
19594;BME280;9944;48.240;16.478;2023-05-14T16:00:11;99485.69;;;11.57;88.68
19594;BME280;9944;48.240;16.478;2023-05-14T16:04:16;99492.72;;;11.60;88.75
19594;BME280;9944;48.240;16.478;2023-05-14T16:08:19;99485.66;;;11.59;88.85
19594;BME280;9944;48.240;16.478;2023-05-14T16:12:22;99475.94;;;11.61;89.02
19594;BME280;9944;48.240;16.478;2023-05-14T16:16:25;99475.94;;;11.59;88.78
19594;BME280;9944;48.240;16.478;2023-05-14T16:20:30;99472.47;;;11.55;88.69
19594;BME280;9944;48.240;16.478;2023-05-14T16:24:33;99454.88;;;11.54;88.62
19594;BME280;9944;48.240;16.478;2023-05-14T16:28:36;99451.41;;;11.52;88.61
19594;BME280;9944;48.240;16.478;2023-05-14T16:32:41;99443.47;;;11.52;88.66
19594;BME280;9944;48.240;16.478;2023-05-14T16:36:49;99451.41;;;11.52;88.85
19594;BME280;9944;48.240;16.478;2023-05-14T16:40:52;99442.59;;;11.50;89.08
19594;BME280;9944;48.240;16.478;2023-05-14T16:44:55;99433.78;;;11.51;89.13
19594;BME280;9944;48.240;16.478;2023-05-14T16:48:58;99421.44;;;11.50;89.32
19594;BME280;9944;48.240;16.478;2023-05-14T16:53:04;99422.38;;;11.48;89.16
19594;BME280;9944;48.240;16.478;2023-05-14T16:57:07;99416.28;;;11.41;88.82
19594;BME280;9944;48.240;16.478;2023-05-14T17:01:10;99426.00;;;11.39;89.22
19594;BME280;9944;48.240;16.478;2023-05-14T17:05:13;99417.22;;;11.37;89.15
19594;BME280;9944;48.240;16.478;2023-05-14T17:09:18;99412.78;;;11.39;89.25
19594;BME280;9944;48.240;16.478;2023-05-14T17:13:21;99418.06;;;11.41;89.31
19594;BME280;9944;48.240;16.478;2023-05-14T17:17:24;99412.78;;;11.39;89.53
19594;BME280;9944;48.240;16.478;2023-05-14T17:21:27;99411.84;;;11.43;89.57
19594;BME280;9944;48.240;16.478;2023-05-14T17:25:32;99410.16;;;11.39;89.45
19594;BME280;9944;48.240;16.478;2023-05-14T17:29:35;99402.22;;;11.39;89.70
19594;BME280;9944;48.240;16.478;2023-05-14T17:33:38;99406.56;;;11.42;89.74
19594;BME280;9944;48.240;16.478;2023-05-14T17:37:41;99401.28;;;11.43;89.92
19594;BME280;9944;48.240;16.478;2023-05-14T17:41:46;99401.25;;;11.46;90.21
19594;BME280;9944;48.240;16.478;2023-05-14T17:45:49;99395.91;;;11.49;90.00
19594;BME280;9944;48.240;16.478;2023-05-14T17:49:55;99385.31;;;11.52;89.88
19594;BME280;9944;48.240;16.478;2023-05-14T17:53:58;99389.72;;;11.50;89.81
19594;BME280;9944;48.240;16.478;2023-05-14T17:58:03;99385.38;;;11.48;89.75
19594;BME280;9944;48.240;16.478;2023-05-14T18:02:06;99380.06;;;11.48;89.90
19594;BME280;9944;48.240;16.478;2023-05-14T18:06:09;99381.84;;;11.47;90.22
19594;BME280;9944;48.240;16.478;2023-05-14T18:10:12;99370.38;;;11.48;89.98
19594;BME280;9944;48.240;16.478;2023-05-14T18:14:16;99369.50;;;11.49;90.17
19594;BME280;9944;48.240;16.478;2023-05-14T18:18:19;99367.72;;;11.50;89.78
19594;BME280;9944;48.240;16.478;2023-05-14T18:22:24;99359.78;;;11.48;89.96
19594;BME280;9944;48.240;16.478;2023-05-14T18:26:27;99353.59;;;11.51;89.98
19594;BME280;9944;48.240;16.478;2023-05-14T18:30:35;99364.16;;;11.52;90.37
19594;BME280;9944;48.240;16.478;2023-05-14T18:34:38;99360.59;;;11.53;90.17
19594;BME280;9944;48.240;16.478;2023-05-14T18:38:41;99361.53;;;11.51;89.98
19594;BME280;9944;48.240;16.478;2023-05-14T18:42:44;99356.28;;;11.49;90.16
19594;BME280;9944;48.240;16.478;2023-05-14T18:46:49;99345.66;;;11.52;90.18
19594;BME280;9944;48.240;16.478;2023-05-14T18:50:52;99343.84;;;11.54;90.44
19594;BME280;9944;48.240;16.478;2023-05-14T18:54:55;99345.53;;;11.60;90.49
19594;BME280;9944;48.240;16.478;2023-05-14T18:58:58;99336.72;;;11.61;90.49
19594;BME280;9944;48.240;16.478;2023-05-14T19:03:02;99341.09;;;11.61;90.40
19594;BME280;9944;48.240;16.478;2023-05-14T19:07:06;99331.41;;;11.63;90.42
19594;BME280;9944;48.240;16.478;2023-05-14T19:11:09;99314.59;;;11.65;90.50
19594;BME280;9944;48.240;16.478;2023-05-14T19:15:13;99310.25;;;11.63;90.26
19594;BME280;9944;48.240;16.478;2023-05-14T19:19:17;99301.44;;;11.61;89.97
19594;BME280;9944;48.240;16.478;2023-05-14T19:23:20;99300.59;;;11.59;90.09
19594;BME280;9944;48.240;16.478;2023-05-14T19:27:23;99285.59;;;11.61;89.88
19594;BME280;9944;48.240;16.478;2023-05-14T19:31:27;99285.69;;;11.56;89.79
19594;BME280;9944;48.240;16.478;2023-05-14T19:35:31;99315.63;;;11.56;89.91
19594;BME280;9944;48.240;16.478;2023-05-14T19:39:35;99312.16;;;11.53;89.86
19594;BME280;9944;48.240;16.478;2023-05-14T19:43:38;99313.94;;;11.52;90.09
19594;BME280;9944;48.240;16.478;2023-05-14T19:47:41;99308.59;;;11.54;90.00
19594;BME280;9944;48.240;16.478;2023-05-14T19:51:46;99306.84;;;11.54;89.91
19594;BME280;9944;48.240;16.478;2023-05-14T19:55:49;99291.88;;;11.53;89.92
19594;BME280;9944;48.240;16.478;2023-05-14T19:59:52;99278.69;;;11.50;89.93
19594;BME280;9944;48.240;16.478;2023-05-14T20:03:55;99275.22;;;11.48;89.81
19594;BME280;9944;48.240;16.478;2023-05-14T20:07:59;99273.41;;;11.50;90.25
19594;BME280;9944;48.240;16.478;2023-05-14T20:12:05;99280.41;;;11.54;90.41
19594;BME280;9944;48.240;16.478;2023-05-14T20:16:08;99279.56;;;11.52;90.33
19594;BME280;9944;48.240;16.478;2023-05-14T20:20:11;99279.50;;;11.55;90.45
19594;BME280;9944;48.240;16.478;2023-05-14T20:24:16;99275.03;;;11.59;90.46
19594;BME280;9944;48.240;16.478;2023-05-14T20:28:19;99260.06;;;11.60;90.30
19594;BME280;9944;48.240;16.478;2023-05-14T20:32:22;99255.66;;;11.59;90.55
19594;BME280;9944;48.240;16.478;2023-05-14T20:36:26;99251.22;;;11.61;90.91
19594;BME280;9944;48.240;16.478;2023-05-14T20:40:32;99249.38;;;11.66;90.90
19594;BME280;9944;48.240;16.478;2023-05-14T20:44:35;99251.13;;;11.67;90.82
19594;BME280;9944;48.240;16.478;2023-05-14T20:48:38;99251.97;;;11.69;90.51
19594;BME280;9944;48.240;16.478;2023-05-14T20:52:42;99245.81;;;11.68;90.37
19594;BME280;9944;48.240;16.478;2023-05-14T20:56:46;99246.69;;;11.69;90.63
19594;BME280;9944;48.240;16.478;2023-05-14T21:00:49;99244.00;;;11.72;90.72
19594;BME280;9944;48.240;16.478;2023-05-14T21:04:52;99237.75;;;11.76;90.71
19594;BME280;9944;48.240;16.478;2023-05-14T21:08:56;99235.94;;;11.78;90.52
19594;BME280;9944;48.240;16.478;2023-05-14T21:13:00;99225.34;;;11.78;90.04
19594;BME280;9944;48.240;16.478;2023-05-14T21:17:04;99229.81;;;11.76;89.83
19594;BME280;9944;48.240;16.478;2023-05-14T21:21:07;99228.97;;;11.74;89.90
19594;BME280;9944;48.240;16.478;2023-05-14T21:25:10;99217.59;;;11.69;89.83
19594;BME280;9944;48.240;16.478;2023-05-14T21:29:15;99217.63;;;11.67;89.76